Flat Rock, NC (28731)

2:02 PM EDT en Agosto 21, 2014 (GMT -0400)
Ridgeview | Change Station
CLOSE
Current Station
Estación meteorológica personal
Location: Flat Rock, NC
Altura: 2425 ft
Estaciones meteorológicas cercanas

Alt 2425 ft 35.26 °N, 82.45 °W | Updated 5 seconds ago

Clear
Despejado
85.2 ° F
Sensación térmica 90 ° F
N
0.0
Viento Variable Viento desde SSE
Gusts 0.0 mph

Hoy
Alta -- | Baja -- ° F
--% Posibilidad de precipitaciones
Ayer
Alta -- | Baja -- ° F
Precip. -- pul
6:53 AM 8:11 PM
Creciente menguante, 13% visible
Presión 30.12 pul
Visibilidad 10.0 Millas
Nubes Despejado
Índice de calor 90 ° F
Punto de rocío 71 ° F
Humedad 62%
Precipitaciones 0.00 pul
Espesor de la nieve No disponible.
UV 11 de una escala de 12
Polen 8.50 de una escala de 12
Ozono Buena
PM2.5 Buena
Flu Activity No disponible.
METAR KAVL 211754Z 33008KT 10SM CLR 29/19 A3021 RMK AO2 SLP200 T02940189 10300 20183 56005

More Conditions Fewer Conditions

Presión 30.12 pul
Visibilidad 10.0 Millas
Nubes Despejado
Índice de calor 90 ° F
Punto de rocío 71 ° F
Humedad 62%
Precipitaciones 0.00 pul
Espesor de la nieve No disponible.
UV 11 de una escala de 12
Polen 8.50 de una escala de 12
Ozono Buena
PM2.5 Buena
Flu Activity No disponible.
METAR KAVL 211754Z 33008KT 10SM CLR 29/19 A3021 RMK AO2 SLP200 T02940189 10300 20183 56005

More Conditions Fewer Conditions

10-Day Weather Forecast

Almanac

Astronomía

Aug. 21, 2014 Salida Puesta
Hora real 6:53 AM EDT 8:11 PM EDT
Crepúsculo civil 6:27 AM EDT 8:37 PM EDT
Crepúsculo náutico 5:55 AM EDT 9:09 PM EDT
Crepúsculo astronómico 5:22 AM EDT 9:42 PM EDT
Luna 3:26 AM EDT 5:35 PM EDT
Horas de luz 14h 10m
Horas de luz
13h 17m
Tomorrow will be 2m 0s shorter.
Creciente menguante, 13% of the Moon is Illuminated
Hoy
Creciente menguante
Ago 25
Nueva
Sep 2
Cuarto creciente
Sep 8
Luna llena
Sep 15
Cuarto menguante

Extremos de hoy

Máximos del estado Bajos del estado

Community

WunderPhotos

Upload Photos

1,745,987 ¡fotos cargadas!

WunderBlogs® & News

Nearby

Calidad del aire

  Calidad del aire Índice AQ Contaminante
Ayer Buena
PM2.5
Ayer Buena
OZONE
Real Buena
OZONE
Real Buena
PM2.5
Jueves Moderada
PM2.5
Jueves Buena
OZONE
Viernes Moderada
PM2.5
Viernes Buena
OZONE
Sábado Buena
PM2.5
Sábado Buena
OZONE
Domingo Buena
PM2.5
Domingo Buena
OZONE

Grosos de nieve

Estación Profundido Altura
No tenemos constancia de nieve nueva.

Actividad de terremotos

Ciudad Distance Mag. Tiempo y dato
No hay informes recientes de la actividad sísmica.
Magnitud mínima muestra es 2,5.

Temperaturas de aguas costeras

Lugar Temperatura
Sin partes meteorológicos de las estaciones

Estaciones meteorológicas cercanas